Time;durP1;ratioP1;P1;durP2;ratioP2;P2;SDS_P1;SDS_P2;PMS_P1;PMS_P2;Temp;Humidity;BMP_temperature;BMP_pressure;BME280_temperature;BME280_humidity;BME280_pressure;Samples;Min_cycle;Max_cycle;Signal;HPM_P1;HPM_P2
2022/07/10 00:01:03;;;;;;;4.30;3.93;;;;;;;;;;5034181;28;20495;-86
2022/07/10 00:03:30;;;;;;;3.83;3.50;;;;;;;;;;5034146;28;20452;-85
2022/07/10 00:05:58;;;;;;;6.60;5.17;;;16.20;99.90;;;;;;5034300;28;20447;-84
2022/07/10 00:08:25;;;;;;;4.10;3.70;;;;;;;;;;5032832;28;20474;-85
2022/07/10 00:10:52;;;;;;;5.00;3.50;;;;;;;;;;5034123;28;20455;-85
2022/07/10 00:13:20;;;;;;;4.00;3.70;;;;;;;;;;5033925;28;20938;-85
2022/07/10 00:15:47;;;;;;;4.50;4.10;;;;;;;;;;5033910;28;20454;-86
2022/07/10 00:18:14;;;;;;;3.83;3.43;;;;;;;;;;5033349;28;20487;-84
2022/07/10 00:20:41;;;;;;;3.50;3.20;;;;;;;;;;5032441;28;20483;-85
2022/07/10 00:23:09;;;;;;;4.27;3.87;;;16.30;99.90;;;;;;5032636;28;20450;-84
2022/07/10 00:25:37;;;;;;;4.10;3.80;;;;;;;;;;5033692;28;20447;-85
2022/07/10 00:28:04;;;;;;;4.33;3.93;;;;;;;;;;5033282;28;20439;-85
2022/07/10 00:30:31;;;;;;;4.33;3.93;;;;;;;;;;5033632;28;20477;-85
2022/07/10 00:32:59;;;;;;;3.70;3.40;;;;;;;;;;5033645;28;20458;-84
2022/07/10 00:35:26;;;;;;;3.40;3.20;;;;;;;;;;5033608;28;20452;-86
2022/07/10 00:37:53;;;;;;;6.73;3.53;;;;;;;;;;5033406;28;20455;-85
2022/07/10 00:40:22;;;;;;;4.20;3.90;;;16.60;99.90;;;;;;5029968;28;20887;-84
2022/07/10 00:42:49;;;;;;;3.93;3.30;;;;;;;;;;5033507;28;20467;-86
2022/07/10 00:45:16;;;;;;;5.07;3.70;;;;;;;;;;5033332;28;20945;-84
2022/07/10 00:47:43;;;;;;;4.83;4.40;;;;;;;;;;5033232;28;20455;-84
2022/07/10 00:50:12;;;;;;;4.20;3.90;;;;;;;;;;5034321;28;20464;-86
2022/07/10 00:52:39;;;;;;;6.10;4.30;;;16.60;99.90;;;;;;5033139;28;20455;-84
2022/07/10 00:55:07;;;;;;;4.50;3.73;;;;;;;;;;5032081;28;20459;-84
2022/07/10 00:57:37;;;;;;;5.10;4.00;;;16.50;99.90;;;;;;5030338;28;20439;-85
2022/07/10 01:00:04;;;;;;;4.60;4.07;;;;;;;;;;5033143;28;20487;-86
2022/07/10 01:02:31;;;;;;;4.00;3.60;;;;;;;;;;5033186;28;20447;-84
2022/07/10 01:04:59;;;;;;;3.97;3.57;;;;;;;;;;5033207;28;20455;-84
2022/07/10 01:07:26;;;;;;;6.03;3.70;;;;;;;;;;5033226;28;20456;-85
2022/07/10 01:09:53;;;;;;;4.03;3.70;;;;;;;;;;5032186;28;20447;-84
2022/07/10 01:12:21;;;;;;;4.80;3.83;;;16.40;99.90;;;;;;5033206;28;20447;-85
2022/07/10 01:14:50;;;;;;;3.43;3.23;;;16.40;99.90;;;;;;5033198;28;20456;-86
2022/07/10 01:17:19;;;;;;;4.40;3.87;;;;;;;;;;5033055;28;20458;-84
2022/07/10 01:19:46;;;;;;;4.30;3.90;;;;;;;;;;5032650;28;20510;-83
2022/07/10 01:22:14;;;;;;;4.83;4.10;;;16.30;99.90;;;;;;5034220;28;20456;-84
2022/07/10 01:24:42;;;;;;;5.73;4.50;;;16.20;99.90;;;;;;5031951;28;20455;-84
2022/07/10 01:27:09;;;;;;;5.43;4.30;;;;;;;;;;5033133;28;20448;-84
2022/07/10 01:29:37;;;;;;;5.30;3.80;;;;;;;;;;5033157;28;20447;-84
2022/07/10 01:32:04;;;;;;;4.53;4.23;;;;;;;;;;5033096;28;20470;-84
2022/07/10 01:34:31;;;;;;;4.07;3.67;;;;;;;;;;5033293;28;20451;-85
2022/07/10 01:36:58;;;;;;;6.07;4.30;;;;;;;;;;5033395;28;20451;-84
2022/07/10 01:39:26;;;;;;;4.90;4.37;;;15.80;99.90;;;;;;5032485;28;20447;-85
2022/07/10 01:41:53;;;;;;;5.00;4.20;;;;;;;;;;5036968;28;20482;-84
2022/07/10 01:44:20;;;;;;;5.53;4.87;;;;;;;;;;5036526;28;20475;-84
2022/07/10 01:46:48;;;;;;;5.20;4.70;;;15.80;99.90;;;;;;5036690;28;20443;-84
2022/07/10 01:49:16;;;;;;;5.10;4.70;;;;;;;;;;5036699;28;21142;-84
2022/07/10 01:51:43;;;;;;;5.23;4.73;;;;;;;;;;5036876;28;20454;-83
2022/07/10 01:54:12;;;;;;;7.20;4.70;;;;;;;;;;5035616;28;20452;-84
2022/07/10 01:56:40;;;;;;;4.30;3.90;;;15.50;99.90;;;;;;5037805;28;20470;-86
2022/07/10 01:59:07;;;;;;;5.03;4.53;;;;;;;;;;5036534;28;20822;-84
2022/07/10 02:01:34;;;;;;;5.07;4.67;;;;;;;;;;5036463;28;20491;-84
2022/07/10 02:06:46;;;;;;;5.23;4.63;;;;;;;;;;5036370;28;20442;-84
2022/07/10 02:09:14;;;;;;;6.10;5.47;;;;;;;;;;5034959;28;20459;-84
2022/07/10 02:11:42;;;;;;;6.47;5.83;;;15.40;99.90;;;;;;5036241;28;20451;-84
2022/07/10 02:14:10;;;;;;;5.37;4.87;;;;;;;;;;5036325;28;20462;-83
2022/07/10 02:16:37;;;;;;;6.40;5.13;;;;;;;;;;5036144;28;20522;-84
2022/07/10 02:19:05;;;;;;;6.73;6.13;;;15.10;99.90;;;;;;5036036;28;20479;-85
2022/07/10 02:21:32;;;;;;;6.93;5.90;;;;;;;;;;5036138;28;20487;-84
2022/07/10 02:23:59;;;;;;;6.93;6.23;;;;;;;;;;5035048;28;20439;-85
2022/07/10 02:26:26;;;;;;;15.73;8.57;;;;;;;;;;5035937;28;20446;-84
2022/07/10 02:28:54;;;;;;;12.27;9.00;;;15.10;99.90;;;;;;5035949;28;20443;-84
2022/07/10 02:31:21;;;;;;;12.60;9.80;;;;;;;;;;5035830;28;20470;-84
2022/07/10 02:33:48;;;;;;;10.13;9.13;;;;;;;;;;5035979;28;20458;-85
2022/07/10 02:36:16;;;;;;;12.30;10.93;;;;;;;;;;5035797;28;20518;-85
2022/07/10 02:38:43;;;;;;;10.70;9.80;;;;;;;;;;5034489;28;20505;-84
2022/07/10 02:41:10;;;;;;;12.10;10.43;;;;;;;;;;5035689;28;20501;-84
2022/07/10 02:43:37;;;;;;;12.70;11.40;;;;;;;;;;5035834;28;20950;-84
2022/07/10 02:46:06;;;;;;;12.90;11.10;;;15.30;99.90;;;;;;5035688;28;20452;-84
2022/07/10 02:48:33;;;;;;;15.60;10.63;;;;;;;;;;5035285;28;20443;-84
2022/07/10 02:51:00;;;;;;;13.50;12.20;;;;;;;;;;5035088;28;20470;-83
2022/07/10 02:53:27;;;;;;;11.37;10.27;;;;;;;;;;5034267;28;20443;-84
2022/07/10 02:55:54;;;;;;;12.00;10.90;;;;;;;;;;5035593;28;21033;-84
2022/07/10 02:58:21;;;;;;;12.17;10.97;;;;;;;;;;5035442;28;20781;-85
2022/07/10 03:00:48;;;;;;;10.80;9.33;;;;;;;;;;5035273;28;20495;-84
2022/07/10 03:03:17;;;;;;;12.83;11.53;;;15.50;99.90;;;;;;5035361;28;20777;-84
2022/07/10 03:05:44;;;;;;;12.73;11.43;;;;;;;;;;5035159;28;20543;-85
2022/07/10 03:08:11;;;;;;;11.90;10.70;;;;;;;;;;5033918;28;20448;-86
2022/07/10 03:10:38;;;;;;;11.50;10.37;;;;;;;;;;5035138;28;20455;-84
2022/07/10 03:13:05;;;;;;;14.67;12.03;;;;;;;;;;5035198;28;20452;-83
2022/07/10 03:15:32;;;;;;;14.03;10.60;;;;;;;;;;5035050;28;20452;-84
2022/07/10 03:17:59;;;;;;;12.67;11.40;;;;;;;;;;5034515;28;20487;-85
2022/07/10 03:20:28;;;;;;;13.40;11.73;;;15.50;99.90;;;;;;5034937;28;20458;-83
2022/07/10 03:22:55;;;;;;;12.50;11.30;;;;;;;;;;5034576;28;20456;-84
2022/07/10 03:25:22;;;;;;;15.90;12.37;;;;;;;;;;5034182;28;20463;-84
2022/07/10 03:27:49;;;;;;;14.10;11.93;;;;;;;;;;5034806;28;20450;-85
2022/07/10 03:30:16;;;;;;;13.73;12.37;;;;;;;;;;5034700;28;20475;-84
2022/07/10 03:32:43;;;;;;;14.97;12.87;;;;;;;;;;5034483;28;20448;-85
2022/07/10 03:35:11;;;;;;;12.17;10.97;;;;;;;;;;5034829;28;20462;-85
2022/07/10 03:37:39;;;;;;;13.17;11.77;;;15.40;99.90;;;;;;5035768;28;20463;-84
2022/07/10 03:40:06;;;;;;;13.63;12.10;;;15.30;99.90;;;;;;5033001;28;20455;-84
2022/07/10 03:42:33;;;;;;;12.87;11.67;;;;;;;;;;5034574;28;20502;-84
2022/07/10 03:45:01;;;;;;;17.47;12.40;;;;;;;;;;5034597;28;20447;-84
2022/07/10 03:47:28;;;;;;;14.03;12.53;;;15.30;99.90;;;;;;5034501;28;20463;-84
2022/07/10 03:49:55;;;;;;;14.20;12.43;;;;;;;;;;5034314;28;20446;-84
2022/07/10 03:52:22;;;;;;;15.27;13.17;;;;;;;;;;5034498;28;20444;-84
2022/07/10 03:54:50;;;;;;;14.50;13.10;;;15.30;99.90;;;;;;5032858;28;20452;-84
2022/07/10 04:00:02;;;;;;;15.60;13.97;;;;;;;;;;5034319;28;20442;-84
2022/07/10 04:02:29;;;;;;;17.27;14.63;;;;;;;;;;5033294;28;21016;-83
2022/07/10 04:04:56;;;;;;;15.80;14.20;;;;;;;;;;5034097;28;20927;-84
2022/07/10 04:07:23;;;;;;;13.33;11.93;;;;;;;;;;5034131;28;20456;-84
2022/07/10 04:09:51;;;;;;;12.93;11.70;;;15.30;99.90;;;;;;5032928;28;20458;-85
2022/07/10 04:12:18;;;;;;;15.53;14.03;;;;;;;;;;5034045;28;20455;-83
2022/07/10 04:14:48;;;;;;;14.03;12.30;;;;;;;;;;5033958;28;20451;-84
2022/07/10 04:17:15;;;;;;;15.63;12.70;;;;;;;;;;5033811;28;20459;-84
2022/07/10 04:19:42;;;;;;;14.03;12.00;;;;;;;;;;5033889;28;20462;-84
2022/07/10 04:22:09;;;;;;;13.50;11.80;;;;;;;;;;5034009;28;20495;-84
2022/07/10 04:24:36;;;;;;;14.17;12.77;;;;;;;;;;5032690;28;20452;-84
2022/07/10 04:27:06;;;;;;;15.70;12.73;;;15.10;99.90;;;;;;5033868;28;20813;-86
2022/07/10 04:29:33;;;;;;;15.77;12.37;;;;;;;;;;5033624;28;20478;-85
2022/07/10 04:32:01;;;;;;;13.00;11.70;;;;;;;;;;5033779;28;20806;-83
2022/07/10 04:34:28;;;;;;;13.90;11.70;;;;;;;;;;5033557;28;20443;-84
2022/07/10 04:36:55;;;;;;;12.60;11.30;;;;;;;;;;5033724;28;20435;-83
2022/07/10 04:39:22;;;;;;;12.60;11.27;;;;;;;;;;5032482;28;20450;-83
2022/07/10 04:41:49;;;;;;;13.13;10.80;;;;;;;;;;5033467;28;20491;-85
2022/07/10 04:44:18;;;;;;;12.17;10.97;;;15.10;99.90;;;;;;5033416;28;20452;-85
2022/07/10 04:46:45;;;;;;;13.57;11.53;;;;;;;;;;5033490;28;20454;-85
2022/07/10 04:49:12;;;;;;;12.10;10.80;;;;;;;;;;5033462;28;20454;-83
2022/07/10 04:51:39;;;;;;;9.90;9.00;;;;;;;;;;5033380;28;20554;-85
2022/07/10 04:54:06;;;;;;;9.67;8.67;;;;;;;;;;5032187;28;20447;-84
2022/07/10 04:56:33;;;;;;;10.90;8.83;;;;;;;;;;5032907;28;20850;-85
2022/07/10 04:59:01;;;;;;;9.93;8.93;;;;;;;;;;5033232;28;20452;-86
2022/07/10 05:01:29;;;;;;;9.00;8.20;;;15.30;99.90;;;;;;5033115;28;20981;-85
2022/07/10 05:03:56;;;;;;;9.23;8.43;;;;;;;;;;5033240;28;20518;-85
2022/07/10 05:06:23;;;;;;;7.57;6.87;;;;;;;;;;5033244;28;20826;-84
2022/07/10 05:08:50;;;;;;;10.47;7.70;;;;;;;;;;5031798;28;20947;-84
2022/07/10 05:11:17;;;;;;;9.50;8.40;;;;;;;;;;5032953;28;20471;-84
2022/07/10 05:13:46;;;;;;;8.53;7.67;;;;;;;;;;5034026;28;20466;-84
2022/07/10 05:16:13;;;;;;;7.73;6.90;;;;;;;;;;5033025;28;20444;-84
2022/07/10 05:18:42;;;;;;;8.53;7.60;;;15.40;99.90;;;;;;5032766;28;20479;-85
2022/07/10 05:21:09;;;;;;;7.87;7.23;;;;;;;;;;5032752;28;20522;-84
2022/07/10 05:23:37;;;;;;;8.07;7.23;;;;;;;;;;5031759;28;20447;-85
2022/07/10 05:26:04;;;;;;;8.27;7.43;;;;;;;;;;5032927;28;20452;-84
2022/07/10 05:28:31;;;;;;;7.57;6.93;;;;;;;;;;5032844;28;20467;-86
2022/07/10 05:30:58;;;;;;;6.43;5.87;;;;;;;;;;5032879;28;20448;-84
2022/07/10 05:33:26;;;;;;;11.47;6.80;;;;;;;;;;5032803;28;20602;-85
2022/07/10 05:35:54;;;;;;;7.00;6.30;;;15.80;99.90;;;;;;5032845;28;20452;-84
2022/07/10 05:38:21;;;;;;;6.57;5.97;;;;;;;;;;5031578;28;20452;-85
2022/07/10 05:40:49;;;;;;;10.37;5.90;;;;;;;;;;5032886;28;20451;-85
2022/07/10 05:43:16;;;;;;;6.50;5.50;;;;;;;;;;5032855;28;20502;-87
2022/07/10 05:45:43;;;;;;;5.87;5.27;;;;;;;;;;5032882;28;20561;-86
2022/07/10 05:48:10;;;;;;;5.70;5.00;;;;;;;;;;5032904;28;20847;-86
2022/07/10 05:50:37;;;;;;;5.80;5.20;;;;;;;;;;5032892;28;20501;-85
2022/07/10 05:53:06;;;;;;;8.23;5.20;;;16.70;99.90;;;;;;5031522;28;20455;-84
2022/07/10 05:55:33;;;;;;;4.67;4.17;;;;;;;;;;5026547;28;20809;-85
2022/07/10 05:58:00;;;;;;;3.50;3.20;;;;;;;;;;5030432;28;20519;-86
2022/07/10 06:00:27;;;;;;;9.33;3.83;;;;;;;;;;5032826;28;20455;-87
2022/07/10 06:02:54;;;;;;;7.80;3.17;;;;;;;;;;5032647;28;20491;-86
2022/07/10 06:05:21;;;;;;;7.50;3.00;;;;;;;;;;5032577;28;20455;-86
2022/07/10 06:07:48;;;;;;;3.00;2.80;;;;;;;;;;5032617;28;20464;-85
2022/07/10 06:10:16;;;;;;;2.63;2.40;;;17.20;99.90;;;;;;5031499;28;20454;-85
2022/07/10 06:12:43;;;;;;;3.30;2.80;;;;;;;;;;5032666;28;20451;-85
2022/07/10 06:15:11;;;;;;;3.00;2.70;;;;;;;;;;5032637;28;20485;-84
2022/07/10 06:17:38;;;;;;;3.57;3.00;;;;;;;;;;5032348;28;20506;-86
2022/07/10 06:20:06;;;;;;;2.60;2.40;;;17.30;99.90;;;;;;5032438;28;20455;-84
2022/07/10 06:22:33;;;;;;;5.10;2.57;;;;;;;;;;5032572;28;20491;-85
2022/07/10 06:25:01;;;;;;;2.90;2.53;;;17.20;99.90;;;;;;5031318;28;20443;-83
2022/07/10 06:27:29;;;;;;;4.23;3.07;;;16.90;99.90;;;;;;5035721;28;20454;-85
2022/07/10 06:29:57;;;;;;;8.70;2.90;;;;;;;;;;5035613;28;20471;-85
2022/07/10 06:32:24;;;;;;;8.73;3.73;;;;;;;;;;5036033;28;20455;-84
2022/07/10 06:34:52;;;;;;;4.00;3.40;;;;;;;;;;5036335;28;20836;-85
2022/07/10 06:37:19;;;;;;;3.20;2.90;;;;;;;;;;5036613;28;20865;-85
2022/07/10 06:39:46;;;;;;;4.67;2.90;;;;;;;;;;5035048;28;20454;-85
2022/07/10 06:42:14;;;;;;;3.47;3.13;;;;;;;;;;5036052;28;20498;-85
2022/07/10 06:44:42;;;;;;;3.60;2.97;;;16.60;99.90;;;;;;5035688;28;20451;-86
2022/07/10 06:49:55;;;;;;;5.33;3.20;;;;;;;;;;5035601;28;20845;-84
2022/07/10 06:52:23;;;;;;;5.87;3.60;;;;;;;;;;5035590;28;20440;-86
2022/07/10 06:54:50;;;;;;;4.70;3.23;;;;;;;;;;5034322;28;20442;-84
2022/07/10 06:57:18;;;;;;;4.20;2.87;;;;;;;;;;5035447;28;20451;-84
2022/07/10 06:59:46;;;;;;;4.07;2.67;;;18.50;99.90;;;;;;5035172;28;20501;-84
2022/07/10 07:02:13;;;;;;;2.60;2.40;;;;;;;;;;5035227;28;20908;-84
2022/07/10 07:04:40;;;;;;;4.57;2.70;;;;;;;;;;5035254;28;20456;-85
2022/07/10 07:07:08;;;;;;;2.53;2.33;;;;;;;;;;5035241;28;20447;-85
2022/07/10 07:09:35;;;;;;;3.03;2.73;;;;;;;;;;5034219;28;20444;-84
2022/07/10 07:12:02;;;;;;;3.03;2.40;;;;;;;;;;5035260;28;20446;-85
2022/07/10 07:14:29;;;;;;;3.30;2.23;;;;;;;;;;5032711;28;20451;-84
2022/07/10 07:17:05;;;;;;;2.80;2.07;;;;;;;;;;5035151;28;20455;-85
2022/07/10 07:23:09;;;;;;;2.93;2.50;;;;;;;;;;5035170;28;20542;-83
2022/07/10 07:25:04;;;;;;;4.93;2.20;;;;;;;;;;5033755;28;20497;-85
2022/07/10 07:27:31;;;;;;;3.87;2.10;;;;;;;;;;5034828;28;20450;-84
2022/07/10 07:29:58;;;;;;;2.73;1.90;;;;;;;;;;5034920;28;20452;-85
2022/07/10 07:32:26;;;;;;;4.27;2.30;;;17.00;99.90;;;;;;5034848;28;20451;-84
2022/07/10 07:34:53;;;;;;;7.40;2.57;;;;;;;;;;5034758;28;20826;-84
2022/07/10 07:37:20;;;;;;;3.27;2.30;;;;;;;;;;5034744;28;20447;-84
2022/07/10 07:39:48;;;;;;;4.40;2.27;;;;;;;;;;5033547;28;20443;-85
2022/07/10 07:42:15;;;;;;;2.50;1.90;;;;;;;;;;5034497;28;20483;-83
2022/07/10 07:44:42;;;;;;;4.00;2.73;;;;;;;;;;5034637;28;20451;-86
2022/07/10 07:47:09;;;;;;;2.97;2.20;;;;;;;;;;5034779;28;20444;-84
2022/07/10 07:49:37;;;;;;;3.00;1.97;;;17.40;99.90;;;;;;5034451;28;20481;-85
2022/07/10 07:52:04;;;;;;;3.50;2.27;;;;;;;;;;5034370;28;20490;-84
2022/07/10 07:54:31;;;;;;;2.37;1.80;;;;;;;;;;5033103;28;20475;-84
2022/07/10 07:56:58;;;;;;;3.87;1.93;;;;;;;;;;5034374;28;20820;-85
2022/07/10 07:59:25;;;;;;;3.07;1.80;;;;;;;;;;5033931;28;20477;-85
2022/07/10 08:01:53;;;;;;;7.50;2.23;;;;;;;;;;5033742;28;20451;-84
2022/07/10 08:04:20;;;;;;;2.00;1.80;;;;;;;;;;5030505;28;20459;-85
2022/07/10 08:06:51;;;;;;;3.30;1.90;;;17.30;99.90;;;;;;5034080;28;20450;-87
2022/07/10 08:09:18;;;;;;;3.30;1.90;;;;;;;;;;5032830;28;20474;-86
2022/07/10 08:11:46;;;;;;;2.70;1.90;;;;;;;;;;5034244;28;20447;-86
2022/07/10 08:14:13;;;;;;;3.87;1.97;;;;;;;;;;5033975;28;20934;-87
2022/07/10 08:16:40;;;;;;;1.80;1.53;;;;;;;;;;5033964;28;20450;-86
2022/07/10 08:19:07;;;;;;;2.70;1.40;;;;;;;;;;5033562;28;20982;-88
2022/07/10 08:21:34;;;;;;;3.17;1.67;;;;;;;;;;5033912;28;20451;-86
2022/07/10 08:24:03;;;;;;;2.40;1.70;;;17.50;99.90;;;;;;5032645;28;20549;-86
2022/07/10 08:26:30;;;;;;;2.90;1.43;;;;;;;;;;5033798;28;20447;-87
2022/07/10 08:28:57;;;;;;;6.27;2.73;;;;;;;;;;5033566;28;21004;-86
2022/07/10 08:31:24;;;;;;;2.50;1.67;;;;;;;;;;5033636;28;20455;-87
2022/07/10 08:33:52;;;;;;;2.30;1.70;;;;;;;;;;5033504;28;20459;-86
2022/07/10 08:36:19;;;;;;;1.93;1.43;;;;;;;;;;5034227;28;20455;-86
2022/07/10 08:38:46;;;;;;;2.20;1.53;;;;;;;;;;5032547;28;20472;-86
2022/07/10 08:41:15;;;;;;;4.60;1.77;;;20.40;92.70;;;;;;5033504;28;20458;-86
2022/07/10 08:43:42;;;;;;;1.90;1.70;;;;;;;;;;5033443;28;21010;-88
2022/07/10 08:46:09;;;;;;;3.80;1.90;;;;;;;;;;5033273;28;20781;-89
2022/07/10 08:48:37;;;;;;;7.07;2.10;;;21.10;93.20;;;;;;5033267;28;20455;-86
2022/07/10 08:51:08;;;;;;;2.73;1.70;;;20.60;90.10;;;;;;5033404;28;20454;-87
2022/07/10 08:53:35;;;;;;;1.80;1.70;;;20.50;92.00;;;;;;5032153;28;20451;-86
2022/07/10 08:56:02;;;;;;;2.57;2.07;;;;;;;;;;5033252;28;20460;-87
2022/07/10 08:58:35;;;;;;;2.00;1.50;;;19.40;91.80;;;;;;5033210;28;20962;-86
2022/07/10 09:01:02;;;;;;;3.93;2.40;;;;;;;;;;5033322;28;20451;-86
2022/07/10 09:03:31;;;;;;;3.90;1.77;;;19.80;91.50;;;;;;5033212;28;20835;-87
2022/07/10 09:05:58;;;;;;;2.43;2.03;;;;;;;;;;5032802;28;20970;-88
2022/07/10 09:08:27;;;;;;;2.73;1.93;;;;;;;;;;5031813;28;20455;-88
2022/07/10 09:10:55;;;;;;;2.57;1.87;;;;;;;;;;5032543;28;20465;-87
2022/07/10 09:13:24;;;;;;;4.23;1.73;;;;;;;;;;5033255;28;20451;-85
2022/07/10 09:15:53;;;;;;;2.30;1.83;;;19.60;90.60;;;;;;5029128;28;20457;-87
2022/07/10 09:20:56;;;;;;;2.60;1.50;;;;;;;;;;5123095;22;20565;-87
2022/07/10 09:23:25;;;;;;;1.93;1.73;;;20.60;90.40;;;;;;4999980;28;20504;-86
2022/07/10 09:25:53;;;;;;;3.80;1.93;;;20.90;90.00;;;;;;4993171;28;20556;-86
2022/07/10 09:28:21;;;;;;;3.23;1.70;;;20.10;89.30;;;;;;4993829;28;20449;-87
2022/07/10 09:30:49;;;;;;;4.10;1.87;;;;;;;;;;4993737;28;20449;-89
2022/07/10 09:33:25;;;;;;;3.70;1.57;;;20.70;89.00;;;;;;4993704;28;20489;-86
2022/07/10 09:36:09;;;;;;;2.23;2.03;;;;;;;;;;4992686;28;20460;-89
2022/07/10 09:38:56;;;;;;;4.80;2.33;;;21.70;83.40;;;;;;4993484;28;21079;-86
2022/07/10 09:41:26;;;;;;;5.77;5.10;;;20.80;84.90;;;;;;4993563;28;20544;-85
2022/07/10 09:43:55;;;;;;;2.97;2.70;;;20.10;86.90;;;;;;4993508;28;21007;-86
2022/07/10 09:46:24;;;;;;;4.30;2.50;;;20.60;88.00;;;;;;4993539;28;20453;-85
2022/07/10 09:49:07;;;;;;;2.20;1.77;;;21.10;84.20;;;;;;4992119;28;20572;-85
2022/07/10 09:51:36;;;;;;;1.40;1.30;;;21.50;82.40;;;;;;4990955;28;20453;-86
2022/07/10 09:54:05;;;;;;;4.50;1.70;;;21.70;82.60;;;;;;4993332;28;20464;-85
2022/07/10 09:56:41;;;;;;;1.93;1.47;;;21.40;82.80;;;;;;4993371;28;20445;-86
2022/07/10 09:59:11;;;;;;;2.77;1.70;;;21.60;82.00;;;;;;4993350;28;20453;-86
2022/07/10 10:01:38;;;;;;;3.53;1.73;;;;;;;;;;4996283;28;20515;-86
2022/07/10 10:04:09;;;;;;;4.87;3.30;;;21.70;80.80;;;;;;4995895;28;20898;-86
2022/07/10 10:06:38;;;;;;;2.20;1.53;;;21.40;81.00;;;;;;4993533;28;20453;-86
2022/07/10 10:09:07;;;;;;;3.07;2.30;;;20.00;78.70;;;;;;4997244;28;20531;-87
2022/07/10 10:11:36;;;;;;;2.17;2.00;;;23.10;83.30;;;;;;4995006;28;20564;-86
2022/07/10 10:14:07;;;;;;;2.90;1.90;;;22.40;79.00;;;;;;4997068;28;20515;-86
2022/07/10 10:16:35;;;;;;;2.07;1.87;;;22.20;75.90;;;;;;4997202;28;20947;-85
2022/07/10 10:21:49;;;;;;;5.07;1.80;;;21.50;81.70;;;;;;4996767;28;20500;-86
2022/07/10 10:24:18;;;;;;;2.23;2.03;;;21.70;80.50;;;;;;4996565;28;20500;-86
2022/07/10 10:26:46;;;;;;;3.60;2.20;;;;;;;;;;4996794;28;20457;-86
2022/07/10 10:29:13;;;;;;;2.17;1.70;;;;;;;;;;4996829;28;20449;-86
2022/07/10 10:31:41;;;;;;;2.30;2.07;;;;;;;;;;4996801;28;20519;-86
2022/07/10 10:34:08;;;;;;;2.40;2.00;;;;;;;;;;4995544;28;20484;-85
2022/07/10 10:36:48;;;;;;;4.00;2.57;;;22.00;79.20;;;;;;4996648;28;20445;-87
2022/07/10 10:39:18;;;;;;;3.60;1.40;;;21.70;85.80;;;;;;4996387;28;20448;-87
2022/07/10 10:41:52;;;;;;;1.77;1.67;;;21.20;79.50;;;;;;4996494;28;20457;-86
2022/07/10 10:44:28;;;;;;;4.60;1.97;;;;;;;;;;4996313;28;20501;-85
2022/07/10 10:47:06;;;;;;;9.13;2.70;;;20.70;85.70;;;;;;4996393;28;20600;-86
2022/07/10 10:50:04;;;;;;;3.73;2.00;;;20.90;82.30;;;;;;4995013;28;20480;-86
2022/07/10 10:52:32;;;;;;;2.47;1.80;;;21.80;85.90;;;;;;4936490;29;20455;-86
2022/07/10 10:55:07;;;;;;;2.03;1.70;;;22.70;76.70;;;;;;4981913;28;20457;-86
2022/07/10 10:57:47;;;;;;;1.90;1.57;;;23.00;74.80;;;;;;4996199;28;20543;-86
2022/07/10 11:00:29;;;;;;;2.30;1.70;;;23.00;86.50;;;;;;4996227;28;20457;-87
2022/07/10 11:03:13;;;;;;;2.53;1.80;;;;;;;;;;4996144;28;20492;-84
2022/07/10 11:05:42;;;;;;;2.47;1.97;;;22.30;88.30;;;;;;4995052;28;20947;-85
2022/07/10 11:08:11;;;;;;;4.03;1.73;;;;;;;;;;4996221;28;20453;-86
2022/07/10 11:10:40;;;;;;;2.90;1.57;;;23.30;81.20;;;;;;4996120;28;20507;-87
2022/07/10 11:13:08;;;;;;;6.57;2.90;;;23.50;74.30;;;;;;4995625;28;20454;-89
2022/07/10 11:15:36;;;;;;;4.13;2.20;;;23.50;89.10;;;;;;4995922;28;20500;-87
